ADDS METAR Data INFO
IDs: Format: Raw Decoded Include TAF

Data at: 0156 UTC 19 Jul 2018

KPVW 190135Z AUTO 16011KT 10SM CLR 33/10 A2995 RMK AO2 T03330097
KPVW 190115Z AUTO 16010G16KT 10SM CLR 34/10 A2994 RMK AO2 T03440098
KPVW 190055Z AUTO 17010G15KT 10SM CLR 35/10 A2994 RMK AO2 T03540097
KPVW 190035Z AUTO 16012G16KT 10SM CLR 36/10 A2994 RMK AO2 T03600097
KPVW 190015Z AUTO 17007KT 10SM CLR 37/06 A2994 RMK AO2 T03720063
KPVW 182355Z AUTO 22003KT 10SM CLR 37/07 A2994 RMK AO2 T03740065 10384 20348
KPVW 182335Z AUTO 10004KT 10SM CLR 37/06 A2995 RMK AO2 T03710063
KPVW 182315Z AUTO 21005KT 10SM CLR 37/06 A2995 RMK AO2 T03740064
KPVW 182255Z AUTO 25007KT 10SM CLR 38/07 A2995 RMK AO2 T03790067
KPVW 182235Z AUTO 25004KT 10SM CLR 38/07 A2995 RMK AO2 T03750066
KPVW 182215Z AUTO 17007KT 10SM CLR 38/07 A2996 RMK AO2 T03780067
KPVW 182155Z AUTO 19005KT 10SM CLR 38/07 A2997 RMK AO2 T03800069
KPVW 182135Z AUTO 20006KT 10SM CLR 37/07 A2997 RMK AO2 T03710067
KPVW 182115Z AUTO 18011G15KT 10SM CLR 38/07 A2998 RMK AO2 T03750071
KPVW 182055Z AUTO 23006KT 10SM CLR 37/07 A2999 RMK AO2 T03700070
KPVW 182035Z AUTO 24008G17KT 10SM CLR 37/07 A3000 RMK AO2 T03740074
KPVW 182015Z AUTO 22008G16KT 10SM CLR 38/08 A3001 RMK AO2 T03750081
KPVW 181955Z AUTO 24004G15KT 10SM CLR 36/08 A3001 RMK AO2 T03590077
KPVW 181935Z AUTO 20012G16KT 10SM CLR 37/09 A3002 RMK AO2 T03690088
KPVW 181915Z AUTO 22007G16KT 10SM CLR 37/09 A3002 RMK AO2 T03650093
KPVW 181855Z AUTO 18008KT 160V260 10SM CLR 36/10 A3003 RMK AO2 T03600099
KPVW 181835Z AUTO 22009KT 10SM CLR 35/10 A3004 RMK AO2 T03530099
KPVW 181815Z AUTO 25009G15KT 10SM CLR 36/09 A3004 RMK AO2 T03590094
KPVW 181755Z AUTO 24010G14KT 10SM CLR 35/12 A3006 RMK AO2 T03500119 10352 20188
KPVW 181735Z AUTO 24010G16KT 10SM CLR 34/12 A3006 RMK AO2 T03440123
KPVW 181715Z AUTO 23010G16KT 10SM CLR 34/13 A3006 RMK AO2 T03390132
KPVW 181655Z AUTO 24014G18KT 10SM CLR 33/13 A3007 RMK AO2 T03320130
KPVW 181635Z AUTO 23012G17KT 10SM CLR 33/13 A3008 RMK AO2 T03290129
KPVW 181615Z AUTO 26014KT 10SM CLR 32/13 A3008 RMK AO2 T03220131
KPVW 181555Z AUTO 25012KT 10SM CLR 32/13 A3008 RMK AO2 T03150129
KPVW 181535Z AUTO 25010KT 10SM CLR 31/13 A3009 RMK AO2 T03050132
KPVW 181515Z AUTO 24010KT 10SM CLR 29/13 A3010 RMK AO2 T02940130
KPVW 181455Z AUTO 24011KT 10SM CLR 28/13 A3010 RMK AO2 T02840129
KPVW 181435Z AUTO 26012KT 10SM CLR 27/13 A3010 RMK AO2 T02730125
KPVW 181415Z AUTO 24014KT 10SM CLR 27/12 A3010 RMK AO2 T02670124
KPVW 181355Z AUTO 23009KT 10SM CLR 25/13 A3009 RMK AO2 T02540127
KPVW 181335Z AUTO 24007KT 10SM CLR 24/13 A3009 RMK AO2 T02390128
KPVW 181315Z AUTO 25006KT 10SM CLR 22/13 A3009 RMK AO2 T02220126
KPVW 181255Z AUTO 25006KT 10SM CLR 22/13 A3009 RMK AO2 T02150125
KPVW 181235Z AUTO 24007KT 10SM CLR 21/12 A3008 RMK AO2 T02050121
KPVW 181215Z AUTO 24007KT 10SM CLR 19/12 A3008 RMK AO2 T01930118
KPVW 181155Z AUTO 24006KT 10SM CLR 19/12 A3008 RMK AO2 T01880116 10235 20187
KPVW 181135Z AUTO 24006KT 10SM CLR 19/12 A3008 RMK AO2 T01900115
KPVW 181115Z AUTO 24005KT 10SM CLR 19/11 A3008 RMK AO2 T01890112
KPVW 181055Z AUTO 24006KT 10SM CLR 19/11 A3009 RMK AO2 T01920111
KPVW 181035Z AUTO 24005KT 10SM CLR 19/11 A3009 RMK AO2 T01900113
KPVW 181015Z AUTO 23003KT 10SM CLR 19/11 A3008 RMK AO2 T01900113
KPVW 180955Z AUTO 23005KT 10SM CLR 20/12 A3008 RMK AO2 T01970115
KPVW 180935Z AUTO 24006KT 10SM CLR 20/12 A3008 RMK AO2 T01980115
KPVW 180915Z AUTO 23004KT 10SM CLR 20/11 A3007 RMK AO2 T02030110
KPVW 180855Z AUTO 23006KT 10SM CLR 22/11 A3007 RMK AO2 T02150108
KPVW 180835Z AUTO 22004KT 10SM CLR 21/11 A3008 RMK AO2 T02070111
KPVW 180815Z AUTO 23004KT 10SM CLR 21/11 A3008 RMK AO2 T02050111
KPVW 180755Z AUTO 24003KT 10SM CLR 21/11 A3008 RMK AO2 T02120108
KPVW 180735Z AUTO 23005KT 10SM CLR 22/10 A3008 RMK AO2 T02200103
KPVW 180715Z AUTO 22006KT 10SM CLR 23/10 A3008 RMK AO2 T02270101
KPVW 180655Z AUTO 22005KT 10SM CLR 22/10 A3008 RMK AO2 T02190100
KPVW 180635Z AUTO 22005KT 10SM CLR 22/10 A3009 RMK AO2 T02210100
KPVW 180615Z AUTO 22005KT 10SM CLR 23/10 A3009 RMK AO2 T02300099
KPVW 180555Z AUTO 20005KT 10SM CLR 23/09 A3009 RMK AO2 T02330092 10346 20233 403530198
KPVW 180535Z AUTO 20005KT 10SM CLR 24/09 A3009 RMK AO2 T02380089
KPVW 180515Z AUTO 20004KT 10SM CLR 24/09 A3009 RMK AO2 T02430089
KPVW 180455Z AUTO 19006KT 10SM CLR 25/09 A3009 RMK AO2 T02500086
KPVW 180435Z AUTO 20007KT 10SM CLR 25/09 A3008 RMK AO2 T02520085
KPVW 180415Z AUTO 20007KT 10SM CLR 26/08 A3008 RMK AO2 T02560080
KPVW 180355Z AUTO 19006KT 10SM CLR 27/08 A3007 RMK AO2 T02660076
KPVW 180335Z AUTO 19006KT 10SM CLR 27/08 A3007 RMK AO2 T02650079
KPVW 180315Z AUTO 19007KT 10SM CLR 27/08 A3006 RMK AO2 T02720080
KPVW 180255Z AUTO 19005KT 10SM CLR 27/08 A3006 RMK AO2 T02670084
KPVW 180235Z AUTO 19004KT 10SM CLR 27/09 A3006 RMK AO2 T02740086
KPVW 180215Z AUTO 20005KT 10SM CLR 29/09 A3006 RMK AO2 T02870090
KPVW 180155Z AUTO 19006KT 10SM CLR 30/09 A3006 RMK AO2 T03010091
KPVW 180135Z AUTO 18007KT 10SM CLR 31/09 A3006 RMK AO2 T03130094
KPVW 180115Z AUTO 18007KT 10SM CLR 33/10 A3005 RMK AO2 T03260095
KPVW 180055Z AUTO 18009KT 10SM CLR 34/09 A3005 RMK AO2 T03350093
KPVW 180035Z AUTO 21010KT 10SM CLR 34/09 A3005 RMK AO2 T03390094
KPVW 180015Z AUTO 17010KT 10SM CLR 35/10 A3005 RMK AO2 T03460100
KPVW 172355Z AUTO 21010KT 10SM CLR 35/10 A3006 RMK AO2 T03450100 10353 20325
KPVW 172335Z AUTO 18009G15KT 10SM CLR 35/10 A3006 RMK AO2 T03500102
KPVW 172315Z AUTO 17010KT 10SM CLR 35/10 A3006 RMK AO2 T03500104
KPVW 172255Z AUTO 19008G15KT 10SM CLR 35/10 A3006 RMK AO2 T03500103
KPVW 172235Z AUTO 25012KT 10SM CLR 35/11 A3007 RMK AO2 T03530107
KPVW 172215Z AUTO 20006G15KT 10SM CLR 35/11 A3007 RMK AO2 T03530110
KPVW 172155Z AUTO 19008KT 10SM SCT090 35/11 A3007 RMK AO2 T03500112
KPVW 172135Z AUTO 22007G14KT 10SM SCT090 35/11 A3008 RMK AO2 T03460113
KPVW 172115Z AUTO 19008KT 10SM CLR 35/12 A3009 RMK AO2 T03450116
KPVW 172055Z AUTO 22003KT 10SM SCT090 35/12 A3009 RMK AO2 T03500116
KPVW 172035Z AUTO 19007KT 10SM SCT090 35/12 A3010 RMK AO2 T03450115
KPVW 172015Z AUTO 21005KT 10SM CLR 34/12 A3011 RMK AO2 T03390117
KPVW 171955Z AUTO 18008KT 140V200 10SM SCT080 SCT110 34/12 A3011 RMK AO2 T03420120
KPVW 171935Z AUTO 24010G14KT 10SM SCT080 BKN110 34/13 A3012 RMK AO2 T03420126
KPVW 171915Z AUTO 22006KT 10SM SCT080 BKN110 33/13 A3012 RMK AO2 LTG DSNT W T03340125
KPVW 171855Z AUTO 26007KT 10SM SCT100 34/13 A3013 RMK AO2 T03390129
KPVW 171835Z AUTO 15006KT 10SM CLR 33/13 A3013 RMK AO2 T03320127
KPVW 171815Z AUTO 25007KT 10SM CLR 33/13 A3015 RMK AO2 T03330131
KPVW 171755Z AUTO 23005KT 10SM CLR 33/13 A3015 RMK AO2 T03280129 10332 20198
KPVW 171735Z AUTO 26010KT 10SM CLR 32/13 A3015 RMK AO2 T03240134
KPVW 171715Z AUTO 24011G16KT 10SM CLR 32/13 A3016 RMK AO2 T03200129
KPVW 171655Z AUTO 24010G15KT 10SM CLR 32/14 A3016 RMK AO2 T03200142
KPVW 171635Z AUTO 23008KT 10SM CLR 31/15 A3017 RMK AO2 T03130153
KPVW 171615Z AUTO 25009KT 10SM CLR 31/15 A3017 RMK AO2 T03050154
KPVW 171555Z AUTO 24010KT 10SM CLR 30/16 A3016 RMK AO2 T03010155
KPVW 171535Z AUTO 24011KT 10SM CLR 29/15 A3016 RMK AO2 T02930154
KPVW 171515Z AUTO 23010KT 10SM CLR 29/15 A3016 RMK AO2 T02850152
KPVW 171455Z AUTO 24011KT 10SM CLR 28/15 A3016 RMK AO2 T02810153
KPVW 171435Z AUTO 24011KT 10SM CLR 27/15 A3016 RMK AO2 T02730149
KPVW 171415Z AUTO 25010KT 10SM CLR 26/15 A3016 RMK AO2 T02640148